createdAt,value
2023-01-27T00:01:05.009Z,13.00
2023-01-27T00:03:32.486Z,13.83
2023-01-27T00:06:00.650Z,14.87
2023-01-27T00:08:28.421Z,13.13
2023-01-27T00:11:27.441Z,15.10
2023-01-27T00:13:55.154Z,14.87
2023-01-27T00:16:22.512Z,9.40
2023-01-27T00:18:50.038Z,9.67
2023-01-27T00:21:35.947Z,8.77
2023-01-27T00:24:21.561Z,14.97
2023-01-27T00:26:49.739Z,10.40
2023-01-27T00:29:17.161Z,14.73
2023-01-27T00:32:03.071Z,12.63
2023-01-27T00:34:30.550Z,13.67
2023-01-27T00:36:58.023Z,15.80
2023-01-27T00:39:25.437Z,16.00
2023-01-27T00:41:54.584Z,12.03
2023-01-27T00:44:23.212Z,13.20
2023-01-27T00:46:50.918Z,12.70
2023-01-27T00:49:18.392Z,13.20
2023-01-27T00:51:45.797Z,10.70
2023-01-27T00:54:13.711Z,13.30
2023-01-27T00:56:41.618Z,12.53
2023-01-27T00:59:10.082Z,10.13
2023-01-27T01:01:37.846Z,11.73
2023-01-27T01:04:05.719Z,16.30
2023-01-27T01:06:33.611Z,13.10
2023-01-27T01:09:01.130Z,11.77
2023-01-27T01:11:28.794Z,12.30
2023-01-27T01:13:56.835Z,13.43
2023-01-27T01:16:27.811Z,10.67
2023-01-27T01:18:55.329Z,12.60
2023-01-27T01:21:22.987Z,11.27
2023-01-27T01:23:50.846Z,11.60
2023-01-27T01:26:18.370Z,13.47
2023-01-27T01:28:46.580Z,13.37
2023-01-27T01:31:15.479Z,14.80
2023-01-27T01:33:43.541Z,13.73
2023-01-27T01:36:13.399Z,12.20
2023-01-27T01:38:40.819Z,9.63
2023-01-27T01:41:11.476Z,11.90
2023-01-27T01:43:38.835Z,10.73
2023-01-27T01:46:08.454Z,11.30
2023-01-27T01:48:38.227Z,13.30
2023-01-27T01:51:12.897Z,12.23
2023-01-27T01:53:45.346Z,11.37
2023-01-27T01:56:18.135Z,10.30
2023-01-27T01:58:46.871Z,12.23
2023-01-27T02:01:15.583Z,9.77
2023-01-27T02:03:47.222Z,12.70
2023-01-27T02:06:15.498Z,10.70
2023-01-27T02:08:44.663Z,10.20
2023-01-27T02:11:12.171Z,10.37
2023-01-27T02:13:40.447Z,10.10
2023-01-27T02:16:10.031Z,12.17
2023-01-27T02:18:39.616Z,12.07
2023-01-27T02:21:07.686Z,11.67
2023-01-27T02:23:46.647Z,11.20
2023-01-27T02:26:18.381Z,11.83
2023-01-27T02:28:45.740Z,13.40
2023-01-27T02:31:13.120Z,11.53
2023-01-27T02:33:40.618Z,12.33
2023-01-27T02:36:12.068Z,12.83
2023-01-27T02:38:43.793Z,13.90
2023-01-27T02:41:15.640Z,12.63
2023-01-27T02:43:43.272Z,12.93
2023-01-27T02:46:11.096Z,13.17
2023-01-27T02:48:38.450Z,14.47
2023-01-27T02:51:06.011Z,13.50
2023-01-27T02:53:33.615Z,15.17
2023-01-27T02:56:01.317Z,14.60
2023-01-27T02:58:29.412Z,11.57
2023-01-27T03:00:56.874Z,8.70
2023-01-27T03:03:24.199Z,12.80
2023-01-27T03:05:51.501Z,15.20
2023-01-27T03:08:19.147Z,13.93
2023-01-27T03:10:51.262Z,13.80
2023-01-27T03:13:22.501Z,9.13
2023-01-27T03:16:09.147Z,11.23
2023-01-27T03:18:36.823Z,12.37
2023-01-27T03:21:06.048Z,9.20
2023-01-27T03:23:34.200Z,7.47
2023-01-27T03:26:02.654Z,13.57
2023-01-27T03:28:30.011Z,11.10
2023-01-27T03:31:01.496Z,13.33
2023-01-27T03:33:29.498Z,11.03
2023-01-27T03:36:15.281Z,12.27
2023-01-27T03:39:00.927Z,12.97
2023-01-27T03:41:46.996Z,12.90
2023-01-27T03:44:32.515Z,16.53
2023-01-27T03:47:00.826Z,11.30
2023-01-27T03:49:28.324Z,11.37
2023-01-27T03:51:55.574Z,13.90
2023-01-27T03:54:22.905Z,15.70
2023-01-27T03:56:50.177Z,11.77
2023-01-27T03:59:17.576Z,15.07
2023-01-27T04:01:44.933Z,15.97
2023-01-27T04:04:31.222Z,15.10
2023-01-27T04:07:00.165Z,14.83
2023-01-27T04:09:29.271Z,10.00
2023-01-27T04:11:59.143Z,13.27
2023-01-27T04:14:30.862Z,11.23
2023-01-27T04:17:00.348Z,9.87
2023-01-27T04:19:28.734Z,9.80
2023-01-27T04:21:57.124Z,12.90
2023-01-27T04:24:25.053Z,14.50
2023-01-27T04:26:54.966Z,8.37
2023-01-27T04:29:23.470Z,11.70
2023-01-27T04:31:51.246Z,12.70
2023-01-27T04:34:18.753Z,13.77
2023-01-27T04:36:47.251Z,9.90
2023-01-27T04:39:15.799Z,11.20
2023-01-27T04:41:44.316Z,12.43
2023-01-27T04:44:12.401Z,10.00
2023-01-27T04:46:39.878Z,12.13
2023-01-27T04:49:07.881Z,5.20
2023-01-27T04:51:35.300Z,9.40
2023-01-27T04:54:04.760Z,5.63
2023-01-27T04:56:33.492Z,10.90
2023-01-27T04:59:02.266Z,11.00
2023-01-27T05:01:30.434Z,8.10
2023-01-27T05:03:57.988Z,10.43
2023-01-27T05:06:26.107Z,12.97
2023-01-27T05:08:53.497Z,10.10
2023-01-27T05:11:22.036Z,10.47
2023-01-27T05:13:49.640Z,6.63
2023-01-27T05:16:18.987Z,9.27
2023-01-27T05:18:47.342Z,8.90
2023-01-27T05:21:16.336Z,5.67
2023-01-27T05:23:43.882Z,15.37
2023-01-27T05:26:13.331Z,12.57
2023-01-27T05:28:43.095Z,8.70
2023-01-27T05:31:13.030Z,8.93
2023-01-27T05:33:41.608Z,9.07
2023-01-27T05:36:11.400Z,11.63
2023-01-27T05:38:39.030Z,10.60
2023-01-27T05:41:08.068Z,11.40
2023-01-27T05:43:37.332Z,12.03
2023-01-27T05:46:08.269Z,8.27
2023-01-27T05:48:36.655Z,15.60
2023-01-27T05:51:05.076Z,9.27
2023-01-27T05:53:32.963Z,8.47
2023-01-27T05:56:00.720Z,9.20
2023-01-27T05:58:28.096Z,6.93
2023-01-27T06:00:55.955Z,9.37
2023-01-27T06:03:24.438Z,11.37
2023-01-27T06:05:53.378Z,10.90
2023-01-27T06:08:21.736Z,12.10
2023-01-27T06:10:49.107Z,9.47
2023-01-27T06:13:16.626Z,11.07
2023-01-27T06:15:45.671Z,12.00
2023-01-27T06:18:13.783Z,12.00
2023-01-27T06:20:42.762Z,13.60
2023-01-27T06:23:12.209Z,12.83
2023-01-27T06:25:40.607Z,14.70
2023-01-27T06:28:10.747Z,11.37
2023-01-27T06:30:40.956Z,10.07
2023-01-27T06:33:08.804Z,11.50
2023-01-27T06:35:37.780Z,11.37
2023-01-27T06:38:08.183Z,8.90
2023-01-27T06:40:36.206Z,10.03
2023-01-27T06:43:03.786Z,7.23
2023-01-27T06:45:31.347Z,8.10
2023-01-27T06:48:00.565Z,4.90
2023-01-27T06:50:29.243Z,4.77
2023-01-27T06:53:00.809Z,7.43
2023-01-27T06:55:29.765Z,7.33
2023-01-27T06:57:57.190Z,12.23
2023-01-27T07:00:24.677Z,7.57
2023-01-27T07:02:54.572Z,12.33
2023-01-27T07:05:21.895Z,9.60
2023-01-27T07:07:49.120Z,9.87
2023-01-27T07:10:16.864Z,8.03
2023-01-27T07:12:45.046Z,12.47
2023-01-27T07:15:12.876Z,11.37
2023-01-27T07:17:40.164Z,14.03
2023-01-27T07:20:11.379Z,11.03
2023-01-27T07:22:39.375Z,7.30
2023-01-27T07:25:07.690Z,12.23
2023-01-27T07:27:35.508Z,7.20
2023-01-27T07:30:04.025Z,10.47
2023-01-27T07:32:31.388Z,9.80
2023-01-27T07:34:58.759Z,5.53
2023-01-27T07:37:26.133Z,6.73
2023-01-27T07:39:53.573Z,9.27
2023-01-27T07:42:20.863Z,9.47
2023-01-27T07:44:48.144Z,5.23
2023-01-27T07:47:16.223Z,5.00
2023-01-27T07:49:43.568Z,2.50
2023-01-27T07:52:10.784Z,8.73
2023-01-27T07:54:38.042Z,6.70
2023-01-27T07:57:05.273Z,9.40
2023-01-27T07:59:32.543Z,10.00
2023-01-27T08:01:59.771Z,20.17
2023-01-27T08:04:27.741Z,8.73
2023-01-27T08:06:55.026Z,6.37
2023-01-27T08:09:22.303Z,11.00
2023-01-27T08:11:49.542Z,12.97
2023-01-27T08:14:16.807Z,10.50
2023-01-27T08:16:44.077Z,11.57
2023-01-27T08:19:11.363Z,10.17
2023-01-27T08:21:39.492Z,13.70
2023-01-27T08:24:09.580Z,11.00
2023-01-27T08:26:36.936Z,12.10
2023-01-27T08:29:04.140Z,14.00
2023-01-27T08:31:31.395Z,14.47
2023-01-27T08:33:58.685Z,14.90
2023-01-27T08:36:26.384Z,13.70
2023-01-27T08:38:55.197Z,11.60
2023-01-27T08:41:24.479Z,13.20
2023-01-27T08:43:51.879Z,14.53
2023-01-27T08:46:19.197Z,11.30
2023-01-27T08:48:47.074Z,10.60
2023-01-27T08:51:15.155Z,11.60
2023-01-27T08:53:42.553Z,12.90
2023-01-27T08:56:13.302Z,11.23
2023-01-27T08:58:40.581Z,10.90
2023-01-27T09:01:09.200Z,5.53
2023-01-27T09:03:36.640Z,8.80
2023-01-27T09:06:07.303Z,8.37
2023-01-27T09:08:34.670Z,5.20
2023-01-27T09:11:10.212Z,10.20
2023-01-27T09:13:37.534Z,12.37
2023-01-27T09:16:05.767Z,11.50
2023-01-27T09:18:33.377Z,12.90
2023-01-27T09:21:04.607Z,13.57
2023-01-27T09:23:32.152Z,9.47
2023-01-27T09:25:59.563Z,10.17
2023-01-27T09:28:27.505Z,12.93
2023-01-27T09:30:57.836Z,11.40
2023-01-27T09:33:25.536Z,8.63
2023-01-27T09:35:57.082Z,8.70
2023-01-27T09:38:27.932Z,11.43
2023-01-27T09:41:14.008Z,6.70
2023-01-27T09:43:58.582Z,5.93
2023-01-27T09:46:39.395Z,13.27
2023-01-27T09:49:31.886Z,17.10
2023-01-27T09:52:14.119Z,15.27
2023-01-27T09:54:53.941Z,15.93
2023-01-27T09:57:33.115Z,14.30
2023-01-27T10:00:23.707Z,15.60
2023-01-27T10:03:10.280Z,18.80
2023-01-27T10:05:59.690Z,17.50
2023-01-27T10:08:52.079Z,14.30
2023-01-27T10:11:25.764Z,14.20
2023-01-27T10:14:07.055Z,15.50
2023-01-27T10:16:51.144Z,7.30
2023-01-27T10:19:34.326Z,12.53
2023-01-27T10:22:13.328Z,10.93
2023-01-27T10:24:58.878Z,11.50
2023-01-27T10:27:28.917Z,15.67
2023-01-27T10:30:00.656Z,9.90
2023-01-27T10:32:35.072Z,7.10
2023-01-27T10:35:13.555Z,7.50
2023-01-27T10:37:50.357Z,12.80
2023-01-27T10:40:25.741Z,13.30
2023-01-27T10:43:03.639Z,11.33
2023-01-27T10:45:36.894Z,12.60
2023-01-27T10:48:22.992Z,13.30
2023-01-27T10:50:54.817Z,12.47
2023-01-27T10:53:28.819Z,15.53
2023-01-27T10:56:02.441Z,18.47
2023-01-27T10:58:50.950Z,17.60
2023-01-27T11:01:22.857Z,9.60
2023-01-27T11:03:57.751Z,14.23
2023-01-27T11:06:28.633Z,13.37
2023-01-27T11:09:07.530Z,16.20
2023-01-27T11:11:44.197Z,11.43
2023-01-27T11:14:16.872Z,15.30
2023-01-27T11:16:48.725Z,14.87
2023-01-27T11:19:34.748Z,16.10
2023-01-27T11:22:09.124Z,14.57
2023-01-27T11:24:44.763Z,10.67
2023-01-27T11:27:19.922Z,17.33
2023-01-27T11:29:53.336Z,11.50
2023-01-27T11:32:41.166Z,14.23
2023-01-27T11:35:12.432Z,25.73
2023-01-27T11:37:41.658Z,17.20
2023-01-27T11:40:16.726Z,17.17
2023-01-27T11:42:44.673Z,13.73
2023-01-27T11:45:15.988Z,14.90
2023-01-27T11:47:45.482Z,14.00
2023-01-27T11:50:16.255Z,12.67
2023-01-27T11:52:45.744Z,11.13
2023-01-27T11:55:19.271Z,13.90
2023-01-27T11:57:52.522Z,10.67
2023-01-27T12:00:23.789Z,15.37
2023-01-27T12:02:57.919Z,10.80
2023-01-27T12:05:30.723Z,14.60
2023-01-27T12:07:59.627Z,13.00
2023-01-27T12:10:30.765Z,11.60
2023-01-27T12:13:01.233Z,10.13
2023-01-27T12:15:30.445Z,6.83
2023-01-27T12:18:00.432Z,12.77
2023-01-27T12:20:34.447Z,10.30
2023-01-27T12:23:06.556Z,10.30
2023-01-27T12:25:44.110Z,19.97
2023-01-27T12:28:31.788Z,7.50
2023-01-27T12:31:06.843Z,10.67
2023-01-27T12:33:37.410Z,11.47
2023-01-27T12:36:13.850Z,14.17
2023-01-27T12:38:49.288Z,11.23
2023-01-27T12:41:23.454Z,13.10
2023-01-27T12:43:52.917Z,11.20
2023-01-27T12:46:23.504Z,14.40
2023-01-27T12:48:52.733Z,13.40
2023-01-27T12:51:22.869Z,13.43
2023-01-27T12:53:50.914Z,11.20
2023-01-27T12:56:21.886Z,11.53
2023-01-27T12:58:57.801Z,11.60
2023-01-27T13:01:29.346Z,6.57
2023-01-27T13:03:59.761Z,10.90
2023-01-27T13:06:36.329Z,14.87
2023-01-27T13:09:26.599Z,9.70
2023-01-27T13:11:55.644Z,9.03
2023-01-27T13:14:23.024Z,8.17
2023-01-27T13:16:57.744Z,11.90
2023-01-27T13:19:34.712Z,6.67
2023-01-27T13:22:04.924Z,6.43
2023-01-27T13:24:36.536Z,7.83
2023-01-27T13:27:09.943Z,9.33
2023-01-27T13:29:39.364Z,12.47
2023-01-27T13:32:15.908Z,8.60
2023-01-27T13:34:49.463Z,7.70
2023-01-27T13:37:21.770Z,7.90
2023-01-27T13:39:57.807Z,12.63
2023-01-27T13:42:31.215Z,4.87
2023-01-27T13:45:02.529Z,7.27
2023-01-27T13:47:40.749Z,11.20
2023-01-27T13:50:18.519Z,5.60
2023-01-27T13:52:49.511Z,9.13
2023-01-27T13:55:17.823Z,18.20
2023-01-27T13:58:04.839Z,7.10
2023-01-27T14:00:37.005Z,8.50
2023-01-27T14:03:29.545Z,12.60
2023-01-27T14:06:09.286Z,10.07
2023-01-27T14:08:52.771Z,9.30
2023-01-27T14:11:26.444Z,11.17
2023-01-27T14:14:12.317Z,9.70
2023-01-27T14:16:47.101Z,14.70
2023-01-27T14:19:25.566Z,10.40
2023-01-27T14:21:59.565Z,8.73
2023-01-27T14:24:37.829Z,8.23
2023-01-27T14:27:10.557Z,9.40
2023-01-27T14:29:44.389Z,7.20
2023-01-27T14:32:20.982Z,7.83
2023-01-27T14:34:57.780Z,5.97
2023-01-27T14:37:30.887Z,8.73
2023-01-27T14:40:15.752Z,14.70
2023-01-27T14:42:54.343Z,12.33
2023-01-27T14:45:24.447Z,9.77
2023-01-27T14:48:01.267Z,9.10
2023-01-27T14:50:36.015Z,9.00
2023-01-27T14:53:13.564Z,10.97
2023-01-27T14:55:48.471Z,8.83
2023-01-27T14:58:38.158Z,8.33
2023-01-27T15:01:17.131Z,8.63
2023-01-27T15:04:05.609Z,6.50
2023-01-27T15:06:40.764Z,5.77
2023-01-27T15:09:19.341Z,9.63
2023-01-27T15:12:11.195Z,10.50
2023-01-27T15:14:57.279Z,8.40
2023-01-27T15:17:36.156Z,4.90
2023-01-27T15:20:30.087Z,5.23
2023-01-27T15:23:13.106Z,11.27
2023-01-27T15:25:44.330Z,6.70
2023-01-27T15:28:14.653Z,5.10
2023-01-27T15:31:08.377Z,4.90
2023-01-27T15:33:53.388Z,4.57
2023-01-27T15:36:32.122Z,4.20
2023-01-27T15:39:14.974Z,5.40
2023-01-27T15:41:52.756Z,5.83
2023-01-27T15:44:29.598Z,8.13
2023-01-27T15:47:07.282Z,5.67
2023-01-27T15:49:39.833Z,6.27
2023-01-27T15:52:24.661Z,4.87
2023-01-27T15:54:53.539Z,5.00
2023-01-27T15:57:28.360Z,5.00
2023-01-27T16:00:01.614Z,4.37
2023-01-27T16:02:30.834Z,5.83
2023-01-27T16:05:07.946Z,5.83
2023-01-27T16:07:38.177Z,6.07
2023-01-27T16:10:08.057Z,5.20
2023-01-27T16:12:41.749Z,5.30
2023-01-27T16:15:34.472Z,5.00
2023-01-27T16:18:40.898Z,6.30
2023-01-27T16:21:29.116Z,5.50
2023-01-27T16:24:03.135Z,6.40
2023-01-27T16:26:36.191Z,4.97
2023-01-27T16:29:23.223Z,6.13
2023-01-27T16:31:57.663Z,5.17
2023-01-27T16:34:33.405Z,4.70
2023-01-27T16:37:15.044Z,6.53
2023-01-27T16:39:46.857Z,6.40
2023-01-27T16:42:15.832Z,5.00
2023-01-27T16:44:46.276Z,4.87
2023-01-27T16:47:25.276Z,5.93
2023-01-27T16:49:55.444Z,4.60
2023-01-27T16:52:40.749Z,6.03
2023-01-27T16:55:20.186Z,6.50
2023-01-27T16:57:47.420Z,6.63
2023-01-27T17:00:20.931Z,5.20
2023-01-27T17:02:50.109Z,5.50
2023-01-27T17:05:19.448Z,5.63
2023-01-27T17:08:03.244Z,6.27
2023-01-27T17:10:34.678Z,7.37
2023-01-27T17:13:02.768Z,7.40
2023-01-27T17:15:34.749Z,4.33
2023-01-27T17:18:08.087Z,7.57
2023-01-27T17:20:40.797Z,5.90
2023-01-27T17:23:19.329Z,4.07
2023-01-27T17:25:46.686Z,5.87
2023-01-27T17:28:21.008Z,3.17
2023-01-27T17:30:49.878Z,6.10
2023-01-27T17:33:20.459Z,4.80
2023-01-27T17:35:52.895Z,4.73
2023-01-27T17:38:22.871Z,5.30
2023-01-27T17:40:52.060Z,7.37
2023-01-27T17:43:28.251Z,6.50
2023-01-27T17:46:17.499Z,8.23
2023-01-27T17:48:51.421Z,10.37
2023-01-27T17:51:22.193Z,8.00
2023-01-27T17:53:50.806Z,7.40
2023-01-27T17:56:21.796Z,7.63
2023-01-27T17:58:53.187Z,6.27
2023-01-27T18:01:21.903Z,5.20
2023-01-27T18:03:53.129Z,7.67
2023-01-27T18:06:24.319Z,5.80
2023-01-27T18:09:10.637Z,6.40
2023-01-27T18:11:38.413Z,9.47
2023-01-27T18:14:17.491Z,10.70
2023-01-27T18:17:07.427Z,7.40
2023-01-27T18:19:51.782Z,9.37
2023-01-27T18:22:35.761Z,9.93
2023-01-27T18:25:03.473Z,9.83
2023-01-27T18:27:34.402Z,9.07
2023-01-27T18:30:07.017Z,12.37
2023-01-27T18:32:40.420Z,8.13
2023-01-27T18:35:27.250Z,10.83
2023-01-27T18:37:58.086Z,8.80
2023-01-27T18:40:30.388Z,7.63
2023-01-27T18:42:58.445Z,6.90
2023-01-27T18:45:26.947Z,9.83
2023-01-27T18:47:54.397Z,9.43
2023-01-27T18:50:24.297Z,12.60
2023-01-27T18:52:58.097Z,11.50
2023-01-27T18:55:26.958Z,12.37
2023-01-27T18:57:56.693Z,9.90
2023-01-27T19:00:26.185Z,7.70
2023-01-27T19:02:56.472Z,4.93
2023-01-27T19:05:27.365Z,8.57
2023-01-27T19:07:54.956Z,7.80
2023-01-27T19:10:24.495Z,9.40
2023-01-27T19:12:51.855Z,12.27
2023-01-27T19:15:23.003Z,13.67
2023-01-27T19:17:52.606Z,13.23
2023-01-27T19:20:21.853Z,12.37
2023-01-27T19:22:51.164Z,14.00
2023-01-27T19:25:18.526Z,14.03
2023-01-27T19:27:56.567Z,13.60
2023-01-27T19:30:26.224Z,14.20
2023-01-27T19:32:58.557Z,15.20
2023-01-27T19:35:29.658Z,16.00
2023-01-27T19:38:03.931Z,10.40
2023-01-27T19:40:32.118Z,14.53
2023-01-27T19:42:59.563Z,8.97
2023-01-27T19:45:29.496Z,8.27
2023-01-27T19:47:59.753Z,11.70
2023-01-27T19:50:33.748Z,13.10
2023-01-27T19:53:04.997Z,12.03
2023-01-27T19:55:32.822Z,13.60
2023-01-27T19:58:07.933Z,14.03
2023-01-27T20:00:37.204Z,14.10
2023-01-27T20:03:11.332Z,13.10
2023-01-27T20:05:41.590Z,11.20
2023-01-27T20:08:14.965Z,10.40
2023-01-27T20:10:42.893Z,13.40
2023-01-27T20:13:16.565Z,14.33
2023-01-27T20:15:47.310Z,13.50
2023-01-27T20:18:18.129Z,16.17
2023-01-27T20:20:54.731Z,12.87
2023-01-27T20:23:27.793Z,12.97
2023-01-27T20:26:03.971Z,13.77
2023-01-27T20:28:31.364Z,19.20
2023-01-27T20:31:03.444Z,18.43
2023-01-27T20:33:30.880Z,16.37
2023-01-27T20:35:58.455Z,15.90
2023-01-27T20:38:29.205Z,15.90
2023-01-27T20:40:59.760Z,15.80
2023-01-27T20:43:35.258Z,9.87
2023-01-27T20:46:04.693Z,14.70
2023-01-27T20:48:32.328Z,13.40
2023-01-27T20:51:03.973Z,10.67
2023-01-27T20:53:33.943Z,12.10
2023-01-27T20:56:03.931Z,10.30
2023-01-27T20:58:32.554Z,11.83
2023-01-27T21:01:08.269Z,7.80
2023-01-27T21:03:37.297Z,12.07
2023-01-27T21:06:05.539Z,14.87
2023-01-27T21:08:33.998Z,9.80
2023-01-27T21:11:02.155Z,9.73
2023-01-27T21:13:29.656Z,15.40
2023-01-27T21:15:57.619Z,12.67
2023-01-27T21:18:26.981Z,13.70
2023-01-27T21:20:58.784Z,15.13
2023-01-27T21:23:36.914Z,15.77
2023-01-27T21:26:08.681Z,13.00
2023-01-27T21:28:38.962Z,16.30
2023-01-27T21:31:07.301Z,13.73
2023-01-27T21:33:35.840Z,14.50
2023-01-27T21:36:03.998Z,14.93
2023-01-27T21:38:38.490Z,15.53
2023-01-27T21:41:07.713Z,13.80
2023-01-27T21:43:53.529Z,12.57
2023-01-27T21:46:21.283Z,13.87
2023-01-27T21:48:48.570Z,14.20
2023-01-27T21:51:15.928Z,15.23
2023-01-27T21:54:04.382Z,15.83
2023-01-27T21:56:53.549Z,14.57
2023-01-27T21:59:24.035Z,9.50
2023-01-27T22:01:56.915Z,13.77
2023-01-27T22:04:36.146Z,13.97
2023-01-27T22:07:06.714Z,13.87
2023-01-27T22:09:40.075Z,13.27
2023-01-27T22:12:21.211Z,11.00
2023-01-27T22:14:51.505Z,13.63
2023-01-27T22:17:28.631Z,13.43
2023-01-27T22:19:56.038Z,14.27
2023-01-27T22:22:26.441Z,14.70
2023-01-27T22:24:59.716Z,12.90
2023-01-27T22:27:30.375Z,14.23
2023-01-27T22:30:01.233Z,14.57
2023-01-27T22:32:28.570Z,14.07
2023-01-27T22:34:58.664Z,9.17
2023-01-27T22:37:26.013Z,10.00
2023-01-27T22:39:53.182Z,5.47
2023-01-27T22:42:20.441Z,10.57
2023-01-27T22:45:00.170Z,7.73
2023-01-27T22:47:30.347Z,8.37
2023-01-27T22:50:12.414Z,5.93
2023-01-27T22:52:51.522Z,8.07
2023-01-27T22:55:21.724Z,5.60
2023-01-27T22:57:49.045Z,8.83
2023-01-27T23:00:17.865Z,7.03
2023-01-27T23:02:45.379Z,7.00
2023-01-27T23:05:17.234Z,7.17
2023-01-27T23:08:19.718Z,5.60
2023-01-27T23:10:50.360Z,4.57
2023-01-27T23:13:32.791Z,6.50
2023-01-27T23:16:03.527Z,3.33
2023-01-27T23:18:34.043Z,6.13
2023-01-27T23:21:07.206Z,6.90
2023-01-27T23:23:49.385Z,5.73
2023-01-27T23:26:17.000Z,6.37
2023-01-27T23:28:44.350Z,6.07
2023-01-27T23:31:21.878Z,4.23
2023-01-27T23:33:49.330Z,4.40
2023-01-27T23:36:16.659Z,4.30
2023-01-27T23:38:43.936Z,5.33
2023-01-27T23:41:17.180Z,7.73
2023-01-27T23:43:44.678Z,7.17
2023-01-27T23:46:12.616Z,7.80
2023-01-27T23:48:40.580Z,6.03
2023-01-27T23:51:08.943Z,7.33
2023-01-27T23:53:36.262Z,5.70
2023-01-27T23:56:04.103Z,5.17
2023-01-27T23:58:31.425Z,6.73
